Webcams

Webcam1&2         Webcam1 (Zeitraffer 2 Std.)        Webcam2 (Zeitraffer 2 Std.)

Webcam2 - Zeitraffer (die letzten zwei Stunden, Intervall: 10min)
cam2--20181018_073958M
cam2--20181018_074959M
cam2--20181018_075958M
cam2--20181018_080958M
cam2--20181018_081959M
cam2--20181018_082959M
cam2--20181018_083958M
cam2--20181018_084958M
cam2--20181018_085958M
cam2--20181018_090959M
cam2--20181018_091957M
cam2--20181018_092959M
cam2--20181018_093959M
01/13 
start stop bwd fwd

Webcam2 - Aktuell

Lokale Serverzeit 09:40 | 18.10.2018
Webcam-Lageplan

Webcam1&2        Webcam1 (Zeitraffer 2 Std.)        Webcam2 (Zeitraffer 2 Std.)

Webcam1 - Zeitraffer (die letzten zwei Stunden, Intervall: 10min)
cam1--20181018_074000M
cam1--20181018_074958M
cam1--20181018_075959M
cam1--20181018_080958M
cam1--20181018_081959M
cam1--20181018_083000M
cam1--20181018_084000M
cam1--20181018_084959M
cam1--20181018_085959M
cam1--20181018_090959M
cam1--20181018_091959M
cam1--20181018_092958M
cam1--20181018_093959M
01/13 
start stop bwd fwd

Webcam1 - Aktuell

Lokale Serverzeit 09:40 | 18.10.2018
Webcam-Lageplan

Flugwetter

[source: ADDS]
METAR
LOWL 180720Z VRB01KT 2300 0450W R26/P1500U BCFG SCT002 07/07 Q1020 BECMG 9999 NSW =
TAF LOWL 180515Z 1806/1906 VRB02KT 5000 BR SCT005 TX16/1815Z TN07/1806Z TEMPO 1806/1810 1200 BCFG BKN004 PROB40 1806/1809 0300 FG VV002 BECMG 1809/1811 27004KT 9999 NSW FEW040 BECMG 1822/1901 8000 BKN040 PROB30 1903/1906 0600 BCFG FEW003 SCT045
TAF
TAF LOWL 180515Z 1806/1906 VRB02KT 5000 BR SCT005 TX16/1815Z TN07/1806Z TEMPO 1806/1810 1200 BCFG BKN004 PROB40 1806/1809 0300 FG VV002 BECMG 1809/1811 27004KT 9999 NSW FEW040 BECMG 1822/1901 8000 BKN040 PROB30 1903/1906 0600 BCFG FEW003 SCT045 =